Sunset Colony, South Dakota
Current Conditions -  °F | °C
As of 12:35 AM on Monday 26 Jan 2015 (Local Time) from KGWR Reporting Station
Clear Clear  
Wind Chill: 24°   Ceiling: Unl
Heat Index: 34°   Visibility: 10mi
Dew Point: 34°   Wind: 15mph
Humidity: 100%   Direction: 220°SW
Pressure: 29.78"   Gusts: 21mph
Location:  45.8144°N, 97.7089°W
Report Text: KGWR 260635Z AUTO 22013G18KT 10SM CLR 01/01 A2978 RMK A01 P000
Loading
Personal Weather Stations






























Interactive Weather Map New forecast layout! Learn more

10-Day Weather Forecast

Advertisements
Track Severe Weather on mobile